createdAt,value
2023-03-22T00:00:14.088Z,100867.47
2023-03-22T00:02:42.374Z,100869.50
2023-03-22T00:05:10.702Z,100857.38
2023-03-22T00:07:38.079Z,100857.38
2023-03-22T00:10:07.599Z,100860.22
2023-03-22T00:12:34.484Z,100848.78
2023-03-22T00:15:01.363Z,100858.78
2023-03-22T00:17:32.015Z,100852.63
2023-03-22T00:20:00.221Z,100849.34
2023-03-22T00:22:27.027Z,100843.19
2023-03-22T00:25:01.245Z,100851.56
2023-03-22T00:27:28.044Z,100843.56
2023-03-22T00:29:54.846Z,100845.41
2023-03-22T00:32:21.631Z,100835.78
2023-03-22T00:34:48.754Z,100836.59
2023-03-22T00:37:17.934Z,100838.44
2023-03-22T00:39:45.099Z,100833.28
2023-03-22T00:42:12.396Z,100831.81
2023-03-22T00:44:39.208Z,100830.38
2023-03-22T00:47:06.340Z,100835.72
2023-03-22T00:49:37.689Z,100829.75
2023-03-22T00:52:04.835Z,100832.22
2023-03-22T00:54:33.268Z,100824.41
2023-03-22T00:57:00.122Z,100818.28
2023-03-22T00:59:28.422Z,100812.13
2023-03-22T01:01:56.851Z,100817.63
2023-03-22T01:04:26.277Z,100811.50
2023-03-22T01:06:59.435Z,100805.56
2023-03-22T01:09:28.940Z,100805.38
2023-03-22T01:11:58.236Z,100801.22
2023-03-22T01:14:25.843Z,100785.28
2023-03-22T01:16:58.023Z,100793.44
2023-03-22T01:19:27.053Z,100784.81
2023-03-22T01:21:54.350Z,100777.03
2023-03-22T01:24:21.481Z,100775.41
2023-03-22T01:26:48.530Z,100764.94
2023-03-22T01:29:16.985Z,100782.72
2023-03-22T01:31:44.788Z,100772.28
2023-03-22T01:34:11.931Z,100754.88
2023-03-22T01:36:39.033Z,100750.56
2023-03-22T01:39:05.913Z,100748.28
2023-03-22T01:41:35.108Z,100750.94
2023-03-22T01:44:11.422Z,100745.78
2023-03-22T01:46:41.481Z,100737.19
2023-03-22T01:49:12.714Z,100737.19
2023-03-22T01:51:42.719Z,100731.06
2023-03-22T01:54:15.234Z,100732.06
2023-03-22T01:56:42.454Z,100717.94
2023-03-22T01:59:13.714Z,100718.59
2023-03-22T02:01:42.610Z,100714.28
2023-03-22T02:04:16.210Z,100705.47
2023-03-22T02:06:43.698Z,100706.28
2023-03-22T02:09:13.176Z,100700.16
2023-03-22T02:11:42.500Z,100688.50
2023-03-22T02:14:19.576Z,100679.53
2023-03-22T02:17:00.385Z,100681.16
2023-03-22T02:20:03.944Z,100675.84
2023-03-22T02:23:06.200Z,100676.47
2023-03-22T02:25:59.139Z,100676.47
2023-03-22T02:28:36.458Z,100674.63
2023-03-22T02:31:42.961Z,100670.13
2023-03-22T02:34:42.220Z,100670.78
2023-03-22T02:37:37.274Z,100665.44
2023-03-22T02:40:13.284Z,100668.75
2023-03-22T02:42:50.954Z,100658.13
2023-03-22T02:45:21.437Z,100657.91
2023-03-22T02:47:55.245Z,100653.41
2023-03-22T02:50:28.492Z,100652.41
2023-03-22T02:53:02.324Z,100648.72
2023-03-22T02:55:35.181Z,100647.72
2023-03-22T02:58:06.431Z,100647.53
2023-03-22T03:00:36.725Z,100640.16
2023-03-22T03:03:11.461Z,100642.63
2023-03-22T03:05:42.226Z,100632.63
2023-03-22T03:08:13.113Z,100636.94
2023-03-22T03:10:42.417Z,100633.88
2023-03-22T03:13:12.204Z,100632.22
2023-03-22T03:15:42.639Z,100622.41
2023-03-22T03:18:20.703Z,100615.91
2023-03-22T03:21:00.615Z,100619.38
2023-03-22T03:23:36.788Z,100620.19
2023-03-22T03:26:12.599Z,100621.84
2023-03-22T03:28:50.246Z,100613.03
2023-03-22T03:31:27.087Z,100620.84
2023-03-22T03:34:00.807Z,100616.31
2023-03-22T03:36:29.942Z,100610.19
2023-03-22T03:38:58.296Z,100618.97
2023-03-22T03:41:29.526Z,100610.19
2023-03-22T03:43:58.515Z,100606.50
2023-03-22T03:46:25.422Z,100606.50
2023-03-22T03:48:54.013Z,100619.78
2023-03-22T03:51:20.957Z,100618.78
2023-03-22T03:53:47.713Z,100615.31
2023-03-22T03:56:14.697Z,100619.63
2023-03-22T03:58:43.040Z,100624.09
2023-03-22T04:01:09.963Z,100624.75
2023-03-22T04:03:37.641Z,100614.28
2023-03-22T04:06:04.582Z,100615.31
2023-03-22T04:08:31.340Z,100618.78
2023-03-22T04:10:58.146Z,100624.09
2023-03-22T04:13:25.278Z,100621.63
2023-03-22T04:15:58.252Z,100615.53
2023-03-22T04:18:25.083Z,100612.03
2023-03-22T04:20:53.571Z,100618.38
2023-03-22T04:23:23.080Z,100604.25
2023-03-22T04:25:50.522Z,100611.41
2023-03-22T04:28:19.813Z,100606.25
2023-03-22T04:30:52.261Z,100604.44
2023-03-22T04:33:22.699Z,100601.78
2023-03-22T04:35:57.182Z,100604.44
2023-03-22T04:38:25.376Z,100597.66
2023-03-22T04:40:52.147Z,100601.13
2023-03-22T04:43:19.065Z,100598.69
2023-03-22T04:45:46.354Z,100594.56
2023-03-22T04:48:13.790Z,100599.06
2023-03-22T04:50:42.174Z,100599.44
2023-03-22T04:53:09.926Z,100597.00
2023-03-22T04:55:36.785Z,100589.00
2023-03-22T04:58:04.830Z,100585.06
2023-03-22T05:00:31.581Z,100583.44
2023-03-22T05:02:59.941Z,100581.19
2023-03-22T05:05:26.997Z,100587.50
2023-03-22T05:07:56.378Z,100590.16
2023-03-22T05:10:23.265Z,100587.50
2023-03-22T05:12:50.976Z,100579.72
2023-03-22T05:15:17.790Z,100579.72
2023-03-22T05:17:44.543Z,100574.56
2023-03-22T05:20:14.145Z,100574.41
2023-03-22T05:22:42.582Z,100578.88
2023-03-22T05:25:11.712Z,100572.75
2023-03-22T05:27:39.206Z,100564.94
2023-03-22T05:30:07.507Z,100566.59
2023-03-22T05:32:37.727Z,100568.66
2023-03-22T05:35:06.440Z,100566.00
2023-03-22T05:37:33.293Z,100565.34
2023-03-22T05:40:00.823Z,100570.66
2023-03-22T05:42:29.404Z,100567.19
2023-03-22T05:44:56.302Z,100571.88
2023-03-22T05:47:23.132Z,100565.13
2023-03-22T05:49:49.881Z,100570.63
2023-03-22T05:52:16.728Z,100576.13
2023-03-22T05:54:43.866Z,100573.47
2023-03-22T05:57:11.000Z,100576.31
2023-03-22T05:59:39.120Z,100563.84
2023-03-22T06:02:06.473Z,100558.72
2023-03-22T06:04:33.445Z,100559.75
2023-03-22T06:07:01.463Z,100568.53
2023-03-22T06:09:28.303Z,100567.09
2023-03-22T06:11:55.246Z,100563.78
2023-03-22T06:14:21.985Z,100573.59
2023-03-22T06:16:50.196Z,100570.13
2023-03-22T06:19:17.251Z,100565.63
2023-03-22T06:21:43.969Z,100560.50
2023-03-22T06:24:10.855Z,100563.78
2023-03-22T06:26:37.636Z,100561.53
2023-03-22T06:29:04.768Z,100569.28
2023-03-22T06:31:32.900Z,100550.69
2023-03-22T06:34:01.195Z,100555.19
2023-03-22T06:36:27.944Z,100561.31
2023-03-22T06:38:54.934Z,100557.84
2023-03-22T06:41:22.005Z,100555.19
2023-03-22T06:43:51.409Z,100570.31
2023-03-22T06:46:19.390Z,100563.16
2023-03-22T06:48:46.185Z,100572.16
2023-03-22T06:51:14.857Z,100563.16
2023-03-22T06:53:42.057Z,100563.16
2023-03-22T06:56:10.284Z,100555.00
2023-03-22T06:58:37.744Z,100556.47
2023-03-22T07:01:05.238Z,100560.53
2023-03-22T07:03:32.498Z,100563.66
2023-03-22T07:06:02.758Z,100555.31
2023-03-22T07:08:31.211Z,100559.41
2023-03-22T07:10:58.141Z,100557.19
2023-03-22T07:13:25.148Z,100555.78
2023-03-22T07:15:58.595Z,100554.38
2023-03-22T07:18:25.543Z,100563.63
2023-03-22T07:20:52.316Z,100555.25
2023-03-22T07:23:19.329Z,100561.81
2023-03-22T07:25:48.580Z,100564.72
2023-03-22T07:28:16.186Z,100557.19
2023-03-22T07:30:43.073Z,100555.75
2023-03-22T07:33:10.973Z,100545.75
2023-03-22T07:35:38.796Z,100549.47
2023-03-22T07:38:05.834Z,100555.22
2023-03-22T07:40:32.865Z,100558.31
2023-03-22T07:43:01.073Z,100549.94
2023-03-22T07:45:28.669Z,100539.88
2023-03-22T07:47:55.703Z,100559.16
2023-03-22T07:50:22.726Z,100543.19
2023-03-22T07:52:51.456Z,100562.44
2023-03-22T07:55:18.879Z,100553.44
2023-03-22T07:57:45.938Z,100551.41
2023-03-22T08:00:15.655Z,100556.34
2023-03-22T08:02:45.941Z,100561.47
2023-03-22T08:05:12.887Z,100562.91
2023-03-22T08:07:41.359Z,100559.66
2023-03-22T08:10:12.184Z,100556.81
2023-03-22T08:12:39.088Z,100558.44
2023-03-22T08:15:06.938Z,100552.09
2023-03-22T08:17:35.129Z,100547.38
2023-03-22T08:20:08.716Z,100551.28
2023-03-22T08:22:36.560Z,100553.59
2023-03-22T08:25:03.925Z,100543.78
2023-03-22T08:27:31.647Z,100546.84
2023-03-22T08:29:58.877Z,100548.94
2023-03-22T08:32:25.840Z,100546.47
2023-03-22T08:34:54.212Z,100553.84
2023-03-22T08:37:20.946Z,100563.31
2023-03-22T08:39:48.067Z,100561.06
2023-03-22T08:42:14.846Z,100553.69
2023-03-22T08:44:41.627Z,100557.78
2023-03-22T08:47:08.629Z,100550.84
2023-03-22T08:49:35.960Z,100534.66
2023-03-22T08:52:07.360Z,100541.00
2023-03-22T08:54:36.625Z,100542.47
2023-03-22T08:57:03.771Z,100548.19
2023-03-22T08:59:30.814Z,100543.50
2023-03-22T09:01:57.947Z,100541.22
2023-03-22T09:04:24.901Z,100539.00
2023-03-22T09:06:51.770Z,100535.72
2023-03-22T09:09:19.891Z,100547.19
2023-03-22T09:11:47.390Z,100548.66
2023-03-22T09:14:14.346Z,100538.19
2023-03-22T09:16:41.117Z,100536.16
2023-03-22T09:19:07.970Z,100531.44
2023-03-22T09:21:35.098Z,100534.31
2023-03-22T09:24:02.320Z,100522.19
2023-03-22T09:26:30.724Z,100522.63
2023-03-22T09:28:57.415Z,100522.00
2023-03-22T09:31:24.259Z,100522.41
2023-03-22T09:33:51.068Z,100513.78
2023-03-22T09:36:19.811Z,100526.72
2023-03-22T09:38:49.906Z,100520.34
2023-03-22T09:41:22.007Z,100521.78
2023-03-22T09:43:53.216Z,100531.22
2023-03-22T09:46:26.019Z,100526.91
2023-03-22T09:48:53.677Z,100526.91
2023-03-22T09:51:36.462Z,100527.09
2023-03-22T09:54:03.519Z,100525.25
2023-03-22T09:56:32.728Z,100518.09
2023-03-22T09:59:08.493Z,100525.25
2023-03-22T10:01:44.883Z,100527.94
2023-03-22T10:04:31.518Z,100519.09
2023-03-22T10:07:11.589Z,100521.56
2023-03-22T10:09:49.145Z,100539.44
2023-03-22T10:12:23.356Z,100525.69
2023-03-22T10:14:59.933Z,100522.22
2023-03-22T10:17:29.596Z,100521.97
2023-03-22T10:20:00.977Z,100516.03
2023-03-22T10:22:31.838Z,100523.44
2023-03-22T10:25:01.301Z,100521.59
2023-03-22T10:27:31.982Z,100513.78
2023-03-22T10:30:03.399Z,100512.97
2023-03-22T10:32:42.822Z,100528.34
2023-03-22T10:35:18.147Z,100516.06
2023-03-22T10:37:49.295Z,100527.94
2023-03-22T10:40:20.335Z,100525.69
2023-03-22T10:42:55.078Z,100524.47
2023-03-22T10:45:28.234Z,100525.28
2023-03-22T10:48:00.950Z,100531.22
2023-03-22T10:50:32.390Z,100534.09
2023-03-22T10:53:05.633Z,100533.47
2023-03-22T10:55:39.844Z,100535.53
2023-03-22T10:58:16.722Z,100529.59
2023-03-22T11:00:50.009Z,100546.38
2023-03-22T11:03:40.803Z,100541.47
2023-03-22T11:06:11.084Z,100545.16
2023-03-22T11:08:43.679Z,100537.78
2023-03-22T11:11:20.864Z,100541.66
2023-03-22T11:13:54.352Z,100547.81
2023-03-22T11:16:24.884Z,100549.03
2023-03-22T11:18:52.162Z,100541.88
2023-03-22T11:21:23.500Z,100537.78
2023-03-22T11:23:57.811Z,100543.31
2023-03-22T11:26:39.201Z,100540.84
2023-03-22T11:29:16.674Z,100529.56
2023-03-22T11:31:57.359Z,100534.28
2023-03-22T11:34:30.110Z,100536.97
2023-03-22T11:37:00.904Z,100525.66
2023-03-22T11:39:29.864Z,100526.50
2023-03-22T11:41:58.746Z,100527.94
2023-03-22T11:44:28.120Z,100537.34
2023-03-22T11:47:00.649Z,100526.69
2023-03-22T11:49:37.430Z,100523.00
2023-03-22T11:52:10.376Z,100530.00
2023-03-22T11:54:40.944Z,100533.06
2023-03-22T11:57:14.046Z,100524.03
2023-03-22T11:59:47.450Z,100525.69
2023-03-22T12:02:20.499Z,100522.63
2023-03-22T12:04:49.758Z,100517.28
2023-03-22T12:07:21.970Z,100517.47
2023-03-22T12:09:53.706Z,100520.97
2023-03-22T12:12:25.041Z,100524.66
2023-03-22T12:14:56.011Z,100523.63
2023-03-22T12:17:34.206Z,100509.28
2023-03-22T12:20:14.417Z,100505.81
2023-03-22T12:22:48.391Z,100509.28
2023-03-22T12:25:19.253Z,100511.97
2023-03-22T12:27:48.788Z,100530.63
2023-03-22T12:30:20.145Z,100524.25
2023-03-22T12:32:59.886Z,100520.53
2023-03-22T12:35:30.699Z,100523.00
2023-03-22T12:38:01.998Z,100514.19
2023-03-22T12:40:40.277Z,100517.06
2023-03-22T12:43:17.329Z,100527.72
2023-03-22T12:45:49.323Z,100515.22
2023-03-22T12:48:21.012Z,100519.72
2023-03-22T12:50:53.434Z,100517.69
2023-03-22T12:53:23.009Z,100508.84
2023-03-22T12:55:51.315Z,100514.00
2023-03-22T12:58:21.795Z,100517.47
2023-03-22T13:00:53.255Z,100522.81
2023-03-22T13:03:36.607Z,100505.81
2023-03-22T13:06:06.592Z,100526.31
2023-03-22T13:09:21.737Z,100516.47
2023-03-22T13:12:09.928Z,100519.31
2023-03-22T13:14:59.270Z,100516.84
2023-03-22T13:17:44.720Z,100506.41
2023-03-22T13:20:30.884Z,100503.72
2023-03-22T13:23:27.894Z,100510.50
2023-03-22T13:26:06.032Z,100514.81
2023-03-22T13:28:37.435Z,100507.84
2023-03-22T13:31:05.768Z,100505.81
2023-03-22T13:33:35.747Z,100506.63
2023-03-22T13:36:08.723Z,100520.78
2023-03-22T13:38:41.719Z,100515.63
2023-03-22T13:41:20.728Z,100505.59
2023-03-22T13:43:52.104Z,100503.94
2023-03-22T13:46:50.373Z,100517.09
2023-03-22T13:49:50.771Z,100509.88
2023-03-22T13:52:29.024Z,100517.09
2023-03-22T13:54:58.389Z,100504.78
2023-03-22T13:57:59.072Z,100500.88
2023-03-22T14:00:45.026Z,100507.00
2023-03-22T14:03:21.735Z,100507.63
2023-03-22T14:05:56.736Z,100514.63
2023-03-22T14:08:29.312Z,100507.44
2023-03-22T14:11:05.176Z,100504.78
2023-03-22T14:13:36.646Z,100506.63
2023-03-22T14:16:14.228Z,100508.25
2023-03-22T14:18:43.444Z,100510.94
2023-03-22T14:21:15.520Z,100501.47
